< < Back
Terminal Aerodrome Forecast


Current Version              Previous Versions:   1  2  3  4  5  6  7  8  9  

Terminal Aerodrome Forecast

925
FTUS42 KFFC 250800 AAA
TAFFTY
TAF AMD
KFTY 250847Z 2509/2606 00000KT P6SM FEW010 SCT070
     FM251000 00000KT 3SM BR BKN006
     FM251400 29005KT P6SM SCT020
     FM251600 28006KT P6SM SCT045
     FM260000 25003KT P6SM FEW050=

Latest METAR

588
SAUS70 KWBC 260500 RRE
MTRFTY
METAR KFTY 260453Z 00000KT 10SM CLR 22/19 A3005 RMK AO2 SLP166 T02170194
403110200


USA.gov is the U.S. government's official web portal to all federal, state and local government web resources and services.